Time;durP1;ratioP1;P1;durP2;ratioP2;P2;SDS_P1;SDS_P2;PMS_P1;PMS_P2;Temp;Humidity;BMP_temperature;BMP_pressure;BME280_temperature;BME280_humidity;BME280_pressure;Samples;Min_cycle;Max_cycle;Signal;HPM_P1;HPM_P2
2022/01/14 00:01:44;;;;;;;222.25;46.63;;;5.30;99.90;;;;;;5032543;28;20499;-58
2022/01/14 00:04:10;;;;;;;260.25;47.70;;;5.20;99.90;;;;;;5032853;28;20042;-58
2022/01/14 00:06:37;;;;;;;260.80;48.63;;;5.20;99.90;;;;;;5032998;28;20033;-57
2022/01/14 00:09:08;;;;;;;234.75;45.75;;;5.20;99.90;;;;;;5032749;28;20493;-55
2022/01/14 00:11:40;;;;;;;221.73;44.58;;;5.20;99.90;;;;;;5032679;28;20045;-59
2022/01/14 00:14:10;;;;;;;234.38;46.65;;;5.20;99.90;;;;;;5033106;28;20495;-58
2022/01/14 00:16:36;;;;;;;271.48;46.83;;;5.20;99.90;;;;;;5032213;28;20048;-57
2022/01/14 00:19:03;;;;;;;301.70;48.70;;;5.20;99.90;;;;;;5032656;28;20045;-56
2022/01/14 00:21:30;;;;;;;296.65;47.15;;;5.20;99.90;;;;;;5032690;28;20045;-59
2022/01/14 00:32:15;;;;;;;234.25;43.50;;;5.10;99.90;;;;;;5031970;28;19943;-58
2022/01/14 00:34:41;;;;;;;290.85;47.83;;;5.10;99.90;;;;;;5032254;28;20033;-58
2022/01/14 00:37:06;;;;;;;262.20;46.70;;;5.10;99.90;;;;;;5032299;28;20026;-56
2022/01/14 00:39:32;;;;;;;303.92;48.30;;;5.10;99.90;;;;;;5031200;28;20175;-54
2022/01/14 00:41:58;;;;;;;292.10;47.33;;;5.00;99.90;;;;;;5026141;28;20044;-56
2022/01/14 00:44:24;;;;;;;313.83;49.67;;;5.10;99.90;;;;;;5031874;28;20506;-54
2022/01/14 00:46:50;;;;;;;260.23;48.40;;;5.10;99.90;;;;;;5031829;28;20033;-56
2022/01/14 00:49:18;;;;;;;268.02;48.63;;;5.10;99.90;;;;;;5031885;28;20071;-57
2022/01/14 00:51:45;;;;;;;282.35;49.33;;;5.10;99.90;;;;;;5031994;28;20046;-57
2022/01/14 00:54:11;;;;;;;276.02;49.08;;;5.10;99.90;;;;;;5031546;28;20057;-56
2022/01/14 00:59:16;;;;;;;245.40;48.45;;;5.10;99.90;;;;;;5031743;28;20049;-57
2022/01/14 01:01:56;;;;;;;263.35;48.20;;;5.10;99.90;;;;;;5031334;28;20034;-56
2022/01/14 01:04:30;;;;;;;234.52;45.67;;;5.10;99.90;;;;;;5032170;28;20463;-55
2022/01/14 01:06:56;;;;;;;;;;;5.10;99.90;;;;;;5032217;28;20039;-53
2022/01/14 01:09:24;;;;;;;250.00;46.38;;;5.10;99.90;;;;;;5031649;28;19995;-59
2022/01/14 01:11:54;;;;;;;258.95;47.65;;;5.10;99.90;;;;;;5031466;28;20041;-57
2022/01/14 01:14:33;;;;;;;251.00;47.90;;;5.10;99.90;;;;;;5031776;28;20485;-57
2022/01/14 01:16:58;;;;;;;232.32;47.88;;;5.10;99.90;;;;;;5031754;28;20091;-58
2022/01/14 01:19:24;;;;;;;252.50;48.30;;;5.10;99.90;;;;;;5031085;28;20472;-56
2022/01/14 01:21:50;;;;;;;229.68;45.13;;;5.10;99.90;;;;;;5031510;28;20029;-58
2022/01/14 01:24:16;;;;;;;221.98;44.10;;;5.10;99.90;;;;;;5031043;28;20525;-58
2022/01/14 01:26:43;;;;;;;216.13;44.05;;;5.10;99.90;;;;;;5031519;28;20038;-57
2022/01/14 01:31:41;;;;;;;192.48;40.33;;;5.10;99.90;;;;;;5013094;28;20053;-58
2022/01/14 01:34:16;;;;;;;177.60;40.15;;;5.10;99.90;;;;;;5031084;28;20037;-57
2022/01/14 01:36:44;;;;;;;192.57;39.63;;;5.20;99.90;;;;;;5031225;28;20075;-58
2022/01/14 01:39:14;;;;;;;180.00;41.08;;;5.10;99.90;;;;;;5030975;28;20041;-56
2022/01/14 01:41:43;;;;;;;188.57;36.78;;;5.20;99.90;;;;;;5030934;28;20120;-57
2022/01/14 01:44:10;;;;;;;151.95;34.15;;;5.20;99.90;;;;;;5031183;28;20120;-57
2022/01/14 01:46:38;;;;;;;175.73;35.45;;;5.20;99.90;;;;;;5030822;28;20033;-56
2022/01/14 01:49:06;;;;;;;161.60;35.78;;;5.20;99.90;;;;;;5030933;28;20423;-55
2022/01/14 01:51:32;;;;;;;178.95;36.45;;;5.20;99.90;;;;;;5029825;28;20396;-56
2022/01/14 01:53:57;;;;;;;194.52;36.50;;;5.20;99.90;;;;;;5030123;28;20058;-55
2022/01/14 01:56:23;;;;;;;180.57;37.08;;;5.20;99.90;;;;;;5030728;28;20393;-57
2022/01/14 01:58:49;;;;;;;182.40;34.80;;;5.20;99.90;;;;;;5030876;28;20068;-57
2022/01/14 02:01:14;;;;;;;179.20;35.25;;;5.20;99.90;;;;;;5030399;28;20045;-55
2022/01/14 02:03:40;;;;;;;189.85;34.58;;;5.20;99.90;;;;;;5030930;28;20037;-56
2022/01/14 02:06:06;;;;;;;191.93;36.53;;;5.30;99.90;;;;;;5030888;28;20495;-55
2022/01/14 02:08:32;;;;;;;180.77;34.47;;;5.20;99.90;;;;;;5030763;28;20030;-58
2022/01/14 02:10:59;;;;;;;172.98;34.40;;;5.20;99.90;;;;;;5013249;28;20048;-58
2022/01/14 02:13:25;;;;;;;170.43;35.20;;;5.20;99.90;;;;;;5030598;28;20091;-56
2022/01/14 02:16:17;;;;;;;184.45;36.67;;;5.20;99.90;;;;;;5013014;28;20037;-57
2022/01/14 02:18:48;;;;;;;212.15;37.90;;;5.10;99.90;;;;;;5030070;28;20511;-57
2022/01/14 02:26:48;;;;;;;;;;;5.20;99.90;;;;;;5030454;28;20045;-57
2022/01/14 02:29:14;;;;;;;194.40;38.67;;;5.20;99.90;;;;;;5030455;28;19917;-58
2022/01/14 02:31:41;;;;;;;210.52;39.63;;;5.20;99.90;;;;;;5030483;28;20048;-55
2022/01/14 02:34:12;;;;;;;229.38;42.63;;;5.20;99.90;;;;;;5030766;28;20404;-56
2022/01/14 02:36:40;;;;;;;211.55;42.15;;;5.20;99.90;;;;;;5030527;28;20443;-58
2022/01/14 02:39:07;;;;;;;212.85;43.95;;;5.20;99.90;;;;;;5030814;28;20464;-55
2022/01/14 02:41:37;;;;;;;251.07;45.53;;;5.20;99.90;;;;;;5030157;28;20075;-56
2022/01/14 02:44:09;;;;;;;232.90;42.17;;;5.20;99.90;;;;;;5030718;28;20156;-57
2022/01/14 02:46:42;;;;;;;253.68;43.85;;;5.90;99.90;;;;;;5030350;28;20168;-55
2022/01/14 02:49:08;;;;;;;246.15;41.65;;;5.10;99.90;;;;;;5030201;28;20048;-56
2022/01/14 02:51:34;;;;;;;259.00;41.22;;;5.20;99.90;;;;;;5030496;28;20123;-54
2022/01/14 02:54:40;;;;;;;257.98;42.78;;;5.20;99.90;;;;;;5030146;28;20124;-58
2022/01/14 02:56:53;;;;;;;216.57;37.45;;;5.10;99.90;;;;;;5026222;28;20496;-57
2022/01/14 02:59:20;;;;;;;250.82;39.55;;;5.10;99.90;;;;;;5030423;28;20048;-58
2022/01/14 03:01:48;;;;;;;226.05;37.92;;;5.20;99.90;;;;;;5029889;28;20049;-59
2022/01/14 03:04:16;;;;;;;270.13;42.03;;;5.10;99.90;;;;;;5030872;28;20029;-57
2022/01/14 03:06:42;;;;;;;236.90;40.05;;;5.10;99.90;;;;;;5033730;28;20087;-57
2022/01/14 03:09:09;;;;;;;225.43;36.40;;;5.10;99.90;;;;;;5034044;28;20483;-57
2022/01/14 03:11:35;;;;;;;202.68;36.05;;;5.10;99.90;;;;;;5033558;28;20120;-57
2022/01/14 03:14:02;;;;;;;254.57;36.38;;;5.00;99.90;;;;;;4999575;28;20045;-57
2022/01/14 03:16:29;;;;;;;230.80;37.30;;;5.00;99.90;;;;;;5033628;28;20060;-57
2022/01/14 03:19:05;;;;;;;201.98;34.95;;;5.00;99.90;;;;;;5033535;28;20041;-54
2022/01/14 03:21:37;;;;;;;259.67;36.85;;;5.00;99.90;;;;;;5033592;28;20048;-56
2022/01/14 03:24:15;;;;;;;240.18;37.53;;;5.00;99.90;;;;;;5033721;28;20273;-57
2022/01/14 03:26:41;;;;;;;332.05;41.33;;;5.00;99.90;;;;;;5033757;28;20037;-54
2022/01/14 03:29:07;;;;;;;247.55;39.15;;;5.00;99.90;;;;;;5033413;28;20076;-56
2022/01/14 03:31:33;;;;;;;288.70;40.53;;;5.00;99.90;;;;;;5032990;28;20542;-58
2022/01/14 03:33:59;;;;;;;266.88;40.28;;;5.00;99.90;;;;;;5033447;28;20073;-56
2022/01/14 03:36:26;;;;;;;326.42;46.38;;;5.00;99.90;;;;;;5033335;28;20481;-57
2022/01/14 03:38:51;;;;;;;307.90;42.50;;;5.00;99.90;;;;;;5033416;28;20048;-57
2022/01/14 03:41:17;;;;;;;291.45;44.55;;;5.00;99.90;;;;;;5033332;28;20034;-57
2022/01/14 03:43:43;;;;;;;301.73;45.50;;;5.00;99.90;;;;;;5033044;28;20040;-59
2022/01/14 03:46:08;;;;;;;310.25;43.60;;;5.00;99.90;;;;;;5033353;28;20041;-55
2022/01/14 03:48:36;;;;;;;324.58;44.70;;;5.00;99.90;;;;;;5033355;28;20117;-55
2022/01/14 03:51:01;;;;;;;296.67;41.08;;;5.00;99.90;;;;;;5033122;28;20069;-58
2022/01/14 03:53:27;;;;;;;349.60;45.15;;;4.90;99.90;;;;;;5031151;28;20081;-58
2022/01/14 03:55:53;;;;;;;328.05;45.17;;;5.00;99.90;;;;;;5013324;28;20053;-58
2022/01/14 03:58:19;;;;;;;354.23;45.40;;;5.00;99.90;;;;;;5013336;28;20499;-57
2022/01/14 04:00:45;;;;;;;325.35;44.95;;;4.90;99.90;;;;;;5013132;28;20042;-58
2022/01/14 04:03:10;;;;;;;324.05;44.72;;;4.90;99.90;;;;;;5012647;28;20030;-58
2022/01/14 04:05:36;;;;;;;282.02;42.35;;;4.90;99.90;;;;;;5031545;28;20128;-57
2022/01/14 04:08:03;;;;;;;277.00;42.72;;;4.90;99.90;;;;;;5032772;28;20079;-56
2022/01/14 04:10:28;;;;;;;271.88;42.65;;;4.90;99.90;;;;;;5032216;28;20069;-56
2022/01/14 04:13:05;;;;;;;304.33;43.90;;;4.90;99.90;;;;;;5032888;28;20076;-55
2022/01/14 04:15:44;;;;;;;304.35;44.35;;;4.90;99.90;;;;;;5031742;28;20327;-59
2022/01/14 04:18:15;;;;;;;286.95;42.47;;;4.90;99.90;;;;;;5014503;28;20048;-58
2022/01/14 04:20:43;;;;;;;214.40;40.83;;;4.90;99.90;;;;;;5032425;28;20083;-57
2022/01/14 04:23:13;;;;;;;210.38;39.13;;;4.90;99.90;;;;;;5032589;28;20059;-56
2022/01/14 04:25:41;;;;;;;241.48;40.70;;;4.90;99.90;;;;;;5014506;28;20048;-58
2022/01/14 04:28:08;;;;;;;243.45;39.13;;;4.90;99.90;;;;;;5032360;28;20419;-56
2022/01/14 04:30:34;;;;;;;218.13;36.80;;;4.90;99.90;;;;;;5032426;28;20064;-57
2022/01/14 04:33:01;;;;;;;233.93;37.03;;;5.00;99.90;;;;;;5031861;28;20041;-55
2022/01/14 04:35:26;;;;;;;257.83;37.17;;;4.90;99.90;;;;;;5032301;28;20565;-54
2022/01/14 04:37:52;;;;;;;248.80;36.63;;;4.90;99.90;;;;;;5029886;28;20116;-56
2022/01/14 04:40:18;;;;;;;238.55;37.60;;;4.90;99.90;;;;;;5032302;28;20041;-59
2022/01/14 04:42:44;;;;;;;187.27;33.80;;;4.90;99.90;;;;;;5031815;28;20044;-55
2022/01/14 04:45:12;;;;;;;184.02;35.95;;;4.90;99.90;;;;;;5032101;28;20393;-54
2022/01/14 04:47:46;;;;;;;174.52;34.28;;;4.90;99.90;;;;;;5031847;28;20041;-57
2022/01/14 04:50:17;;;;;;;172.52;33.10;;;4.90;99.90;;;;;;5032174;28;20037;-58
2022/01/14 04:52:45;;;;;;;177.43;34.15;;;4.90;99.90;;;;;;5032207;28;20395;-56
2022/01/14 04:55:12;;;;;;;175.00;32.88;;;4.90;99.90;;;;;;5031479;28;20147;-57
2022/01/14 04:57:38;;;;;;;169.90;33.88;;;4.90;99.90;;;;;;5031948;28;20064;-57
2022/01/14 05:00:09;;;;;;;195.27;35.28;;;5.10;99.90;;;;;;5031402;28;20188;-57
2022/01/14 05:02:36;;;;;;;236.50;36.65;;;4.90;99.90;;;;;;5030899;28;20034;-56
2022/01/14 05:05:04;;;;;;;200.32;36.17;;;4.90;99.90;;;;;;5031685;28;20483;-58
2022/01/14 05:07:29;;;;;;;193.05;34.25;;;5.00;99.90;;;;;;5031816;28;20481;-55
2022/01/14 05:12:40;;;;;;;207.85;34.35;;;5.00;99.90;;;;;;5031618;28;20037;-56
2022/01/14 05:15:07;;;;;;;200.07;33.65;;;5.00;99.90;;;;;;5031637;28;20114;-57
2022/01/14 05:17:33;;;;;;;223.05;37.95;;;5.00;99.90;;;;;;5031330;28;20392;-56
2022/01/14 05:19:59;;;;;;;220.65;36.17;;;5.00;99.90;;;;;;5031717;28;20045;-57
2022/01/14 05:22:26;;;;;;;200.05;35.38;;;5.00;99.90;;;;;;5031390;28;20080;-54
2022/01/14 05:24:52;;;;;;;227.30;36.50;;;5.00;99.90;;;;;;5031207;28;20042;-58
2022/01/14 05:27:18;;;;;;;187.25;35.17;;;5.00;99.90;;;;;;5030718;28;20025;-57
2022/01/14 05:29:44;;;;;;;188.10;34.85;;;5.00;99.90;;;;;;5031288;28;20504;-54
2022/01/14 05:32:13;;;;;;;174.18;33.72;;;5.00;99.90;;;;;;5030844;28;20045;-56
2022/01/14 05:34:40;;;;;;;187.23;34.33;;;5.00;99.90;;;;;;5031300;28;20045;-56
2022/01/14 05:37:07;;;;;;;186.18;35.33;;;5.00;99.90;;;;;;5031075;28;20067;-57
2022/01/14 05:39:33;;;;;;;181.73;38.05;;;5.00;99.90;;;;;;5031223;28;20042;-55
2022/01/14 05:42:00;;;;;;;194.38;37.15;;;5.00;99.90;;;;;;5013002;28;20480;-58
2022/01/14 05:44:27;;;;;;;167.13;36.78;;;5.00;99.90;;;;;;5031130;28;20045;-57
2022/01/14 05:46:55;;;;;;;158.32;37.25;;;5.00;99.90;;;;;;5031042;28;20038;-55
2022/01/14 05:49:21;;;;;;;170.30;38.17;;;5.00;99.90;;;;;;5031243;28;20042;-54
2022/01/14 05:51:48;;;;;;;172.82;37.38;;;5.00;99.90;;;;;;5030644;28;20037;-55
2022/01/14 05:54:14;;;;;;;162.55;36.33;;;5.00;99.90;;;;;;5030536;28;20057;-59
2022/01/14 05:56:40;;;;;;;172.05;38.78;;;5.00;99.90;;;;;;5030598;28;20041;-55
2022/01/14 05:59:06;;;;;;;148.05;37.15;;;5.10;99.90;;;;;;5031121;28;20037;-54
2022/01/14 06:01:32;;;;;;;160.30;37.50;;;5.00;99.90;;;;;;5030582;28;20609;-56
2022/01/14 06:04:00;;;;;;;165.70;38.13;;;5.00;99.90;;;;;;5030786;28;20045;-57
2022/01/14 06:06:25;;;;;;;160.90;37.03;;;5.00;99.90;;;;;;5012900;28;20030;-53
2022/01/14 06:08:51;;;;;;;173.57;38.50;;;5.00;99.90;;;;;;5029305;28;20034;-56
2022/01/14 06:11:18;;;;;;;165.10;37.95;;;5.00;99.90;;;;;;5030715;28;20106;-55
2022/01/14 06:13:44;;;;;;;163.15;37.88;;;5.00;99.90;;;;;;5030985;28;20043;-58
2022/01/14 06:16:09;;;;;;;155.77;38.53;;;5.00;99.90;;;;;;5030916;28;20452;-56
2022/01/14 06:18:35;;;;;;;166.85;38.15;;;5.00;99.90;;;;;;5030859;28;20112;-56
2022/01/14 06:21:01;;;;;;;161.55;38.08;;;5.00;99.90;;;;;;5030808;28;20033;-55
2022/01/14 06:23:27;;;;;;;150.57;37.75;;;5.00;99.90;;;;;;5030868;28;20033;-58
2022/01/14 06:25:52;;;;;;;129.70;35.85;;;5.00;99.90;;;;;;5030776;28;20065;-56
2022/01/14 06:28:18;;;;;;;137.07;36.53;;;5.10;99.90;;;;;;5012795;28;20046;-56
2022/01/14 06:30:44;;;;;;;157.52;39.35;;;5.00;99.90;;;;;;5030519;28;20103;-56
2022/01/14 06:33:09;;;;;;;130.43;37.03;;;5.00;99.90;;;;;;5029920;28;20033;-56
2022/01/14 06:35:35;;;;;;;132.52;37.03;;;5.00;99.90;;;;;;5030694;28;20041;-54
2022/01/14 06:38:02;;;;;;;126.72;35.25;;;5.00;99.90;;;;;;5030442;28;20432;-56
2022/01/14 06:40:28;;;;;;;121.22;35.90;;;5.00;99.90;;;;;;5033006;28;20041;-57
2022/01/14 06:42:54;;;;;;;123.13;35.22;;;5.00;99.90;;;;;;5034401;28;20072;-58
2022/01/14 06:45:22;;;;;;;102.45;34.83;;;5.00;99.90;;;;;;5034006;28;20091;-55
2022/01/14 06:47:47;;;;;;;115.70;35.80;;;5.00;99.90;;;;;;5034395;28;20400;-58
2022/01/14 06:50:14;;;;;;;104.13;32.83;;;5.00;99.90;;;;;;5034425;28;20053;-57
2022/01/14 06:52:40;;;;;;;107.40;35.40;;;5.00;99.90;;;;;;5034424;28;20040;-57
2022/01/14 06:55:07;;;;;;;104.13;33.67;;;5.00;99.90;;;;;;5034027;28;20515;-56
2022/01/14 06:57:32;;;;;;;111.95;35.30;;;5.00;99.90;;;;;;5033956;28;20445;-56
2022/01/14 06:59:58;;;;;;;106.20;34.72;;;5.00;99.90;;;;;;5034199;28;20081;-56
2022/01/14 07:02:24;;;;;;;94.93;34.22;;;5.00;99.90;;;;;;5033620;28;20299;-57
2022/01/14 07:04:49;;;;;;;93.10;34.25;;;5.00;99.90;;;;;;5034088;28;20040;-57
2022/01/14 07:07:15;;;;;;;86.75;33.75;;;5.00;99.90;;;;;;5027254;28;20113;-58
2022/01/14 07:09:56;;;;;;;86.75;33.83;;;5.10;99.90;;;;;;5015974;28;20041;-57
2022/01/14 07:12:34;;;;;;;78.13;33.78;;;5.20;99.90;;;;;;5016659;28;20034;-57
2022/01/14 07:15:00;;;;;;;74.93;32.78;;;5.10;99.90;;;;;;5018806;28;20534;-57
2022/01/14 07:17:27;;;;;;;71.47;32.33;;;5.10;99.90;;;;;;5019959;28;20488;-57
2022/01/14 07:19:55;;;;;;;74.30;32.70;;;5.10;99.90;;;;;;5020384;28;20042;-57
2022/01/14 07:22:21;;;;;;;77.65;32.28;;;5.20;99.90;;;;;;5022054;28;20493;-58
2022/01/14 07:24:47;;;;;;;70.50;32.50;;;5.40;99.90;;;;;;5018626;28;20041;-59
2022/01/14 07:27:14;;;;;;;69.65;31.52;;;5.20;99.90;;;;;;5016352;28;20038;-57
2022/01/14 07:29:40;;;;;;;67.75;31.95;;;5.20;99.90;;;;;;5017740;28;20184;-56
2022/01/14 07:32:07;;;;;;;68.50;31.38;;;5.20;99.90;;;;;;5019324;28;20041;-56
2022/01/14 07:34:33;;;;;;;69.97;32.13;;;5.20;99.90;;;;;;5021950;28;20556;-57
2022/01/14 07:36:58;;;;;;;69.32;32.25;;;5.50;99.90;;;;;;5033499;28;20030;-56
2022/01/14 07:39:24;;;;;;;68.13;31.35;;;5.20;99.90;;;;;;5033000;28;20045;-58
2022/01/14 07:41:50;;;;;;;64.50;31.15;;;5.30;99.90;;;;;;5033480;28;20061;-56
2022/01/14 07:44:17;;;;;;;60.63;30.15;;;5.20;99.90;;;;;;5032993;28;20041;-56
2022/01/14 07:46:43;;;;;;;65.80;30.67;;;5.20;99.90;;;;;;5032915;28;20049;-57
2022/01/14 07:49:08;;;;;;;64.03;30.83;;;5.30;99.90;;;;;;5032308;28;20037;-58
2022/01/14 07:51:34;;;;;;;67.05;29.15;;;5.30;99.90;;;;;;5033185;28;20044;-58
2022/01/14 07:54:05;;;;;;;61.25;29.25;;;5.30;99.90;;;;;;5031836;28;20095;-56
2022/01/14 07:56:36;;;;;;;59.50;28.92;;;5.30;99.90;;;;;;5025722;28;20053;-56
2022/01/14 07:59:03;;;;;;;60.75;30.10;;;5.30;99.90;;;;;;5024164;28;20057;-57
2022/01/14 08:01:28;;;;;;;63.13;29.23;;;5.30;99.90;;;;;;5023868;28;20357;-55
2022/01/14 08:03:54;;;;;;;62.30;28.48;;;5.30;99.90;;;;;;5024723;28;20037;-59
2022/01/14 08:06:22;;;;;;;61.45;28.63;;;5.30;99.90;;;;;;5025915;28;20490;-58
2022/01/14 08:08:48;;;;;;;57.42;28.98;;;5.30;99.90;;;;;;5026255;28;20038;-58
2022/01/14 08:11:14;;;;;;;60.70;28.23;;;5.30;99.90;;;;;;5026394;28;20033;-56
2022/01/14 08:13:40;;;;;;;61.80;27.63;;;5.30;99.90;;;;;;5025488;28;20026;-57
2022/01/14 08:16:05;;;;;;;58.05;29.60;;;5.30;99.90;;;;;;5026394;28;20084;-58
2022/01/14 08:18:31;;;;;;;52.15;28.98;;;5.40;99.90;;;;;;5026536;28;20436;-54
2022/01/14 08:20:57;;;;;;;56.85;27.92;;;5.40;99.90;;;;;;5024728;28;20040;-57
2022/01/14 08:23:22;;;;;;;57.10;27.52;;;5.70;99.90;;;;;;5026101;28;20034;-55
2022/01/14 08:25:53;;;;;;;58.97;27.08;;;5.40;99.90;;;;;;5026096;28;20041;-58
2022/01/14 08:28:19;;;;;;;59.15;27.05;;;5.40;99.90;;;;;;5025528;28;20450;-57
2022/01/14 08:30:45;;;;;;;53.83;25.98;;;5.40;99.90;;;;;;5025996;28;20077;-57
2022/01/14 08:33:12;;;;;;;51.28;25.70;;;5.40;99.90;;;;;;5007416;28;20065;-58
2022/01/14 08:35:39;;;;;;;53.17;24.95;;;5.50;99.90;;;;;;5024914;28;20031;-57
2022/01/14 08:38:05;;;;;;;51.10;25.15;;;5.50;99.90;;;;;;5025843;28;20092;-58
2022/01/14 08:40:31;;;;;;;47.92;24.77;;;5.50;99.90;;;;;;5023505;28;20446;-58
2022/01/14 08:42:57;;;;;;;48.63;23.83;;;5.50;99.90;;;;;;5023888;28;20037;-55
2022/01/14 08:45:23;;;;;;;51.17;24.02;;;5.50;99.90;;;;;;5024990;28;20033;-56
2022/01/14 08:47:53;;;;;;;49.58;22.10;;;5.50;99.90;;;;;;5023529;28;20473;-56
2022/01/14 08:50:38;;;;;;;50.13;23.25;;;5.60;99.90;;;;;;5022594;28;20049;-57
2022/01/14 08:53:09;;;;;;;45.97;22.40;;;5.60;99.90;;;;;;5024466;28;20095;-56
2022/01/14 08:55:35;;;;;;;48.63;22.17;;;5.60;99.90;;;;;;5024108;28;20519;-57
2022/01/14 08:58:03;;;;;;;49.03;23.25;;;5.60;99.90;;;;;;5024131;28;20099;-57
2022/01/14 09:00:28;;;;;;;43.78;21.63;;;5.60;99.90;;;;;;5023569;28;20068;-56
2022/01/14 09:02:54;;;;;;;45.90;21.65;;;5.70;99.90;;;;;;5023665;28;20026;-57
2022/01/14 09:05:21;;;;;;;46.70;20.73;;;5.60;99.90;;;;;;5022037;28;20356;-55
2022/01/14 09:07:47;;;;;;;42.22;20.05;;;5.70;99.90;;;;;;5022735;28;20025;-57
2022/01/14 09:10:13;;;;;;;39.22;18.42;;;5.70;99.90;;;;;;5023940;28;20043;-58
2022/01/14 09:12:40;;;;;;;39.63;18.08;;;5.70;99.90;;;;;;5023142;28;20095;-56
2022/01/14 09:15:08;;;;;;;37.33;18.48;;;5.70;99.90;;;;;;5023703;28;20085;-57
2022/01/14 09:17:33;;;;;;;44.65;19.80;;;5.80;99.90;;;;;;5023274;28;20038;-58
2022/01/14 09:20:02;;;;;;;44.45;20.27;;;5.70;99.90;;;;;;5022752;28;20061;-58
2022/01/14 09:22:30;;;;;;;49.00;21.20;;;5.80;99.90;;;;;;5023346;28;20232;-59
2022/01/14 09:24:58;;;;;;;42.55;21.60;;;5.80;99.90;;;;;;5022120;28;20045;-57
2022/01/14 09:27:23;;;;;;;47.97;21.15;;;5.80;99.90;;;;;;5022277;28;20029;-58
2022/01/14 09:29:49;;;;;;;39.67;20.40;;;5.80;99.90;;;;;;5022633;28;20544;-57
2022/01/14 09:32:15;;;;;;;50.83;21.15;;;5.80;99.90;;;;;;5022757;28;20041;-58
2022/01/14 09:34:41;;;;;;;50.05;22.50;;;5.90;99.90;;;;;;5023374;28;20563;-58
2022/01/14 09:37:07;;;;;;;50.83;21.88;;;5.90;99.90;;;;;;5022214;28;20096;-58
2022/01/14 09:39:34;;;;;;;43.22;19.23;;;5.90;99.90;;;;;;5021150;28;20408;-57
2022/01/14 09:42:00;;;;;;;39.28;18.30;;;6.00;99.90;;;;;;5019601;28;20045;-57
2022/01/14 09:44:26;;;;;;;44.70;18.15;;;5.90;99.90;;;;;;5020206;28;20056;-58
2022/01/14 09:46:52;;;;;;;41.13;18.08;;;6.00;99.90;;;;;;5002267;28;20041;-56
2022/01/14 09:49:19;;;;;;;35.97;17.67;;;6.00;99.90;;;;;;5020045;28;20045;-56
2022/01/14 09:51:46;;;;;;;43.63;16.85;;;6.10;99.90;;;;;;5021054;28;20389;-57
2022/01/14 09:54:12;;;;;;;33.78;15.45;;;6.00;99.90;;;;;;5020561;28;20069;-57
2022/01/14 09:56:39;;;;;;;34.50;15.85;;;6.10;99.90;;;;;;5019235;28;20083;-53
2022/01/14 09:59:06;;;;;;;33.63;13.88;;;6.10;99.90;;;;;;5021345;28;20049;-58
2022/01/14 10:01:41;;;;;;;26.77;13.07;;;6.10;99.90;;;;;;4987197;28;20121;-58
2022/01/14 10:04:12;;;;;;;30.33;12.98;;;6.10;99.90;;;;;;5021306;28;20033;-57
2022/01/14 10:06:53;;;;;;;33.10;13.25;;;6.20;99.90;;;;;;5020207;28;20044;-56
2022/01/14 10:09:22;;;;;;;25.65;11.30;;;6.20;99.90;;;;;;5022503;28;20045;-59
2022/01/14 10:12:08;;;;;;;28.77;12.40;;;6.20;99.90;;;;;;5022845;28;20124;-57
2022/01/14 10:15:03;;;;;;;29.45;11.32;;;6.20;99.90;;;;;;5022916;28;20041;-57
2022/01/14 10:17:37;;;;;;;33.33;11.60;;;6.30;99.90;;;;;;5015269;28;20041;-59
2022/01/14 10:20:05;;;;;;;28.33;10.73;;;6.30;99.90;;;;;;5028622;28;20535;-57
2022/01/14 10:22:33;;;;;;;22.80;11.02;;;6.30;99.90;;;;;;5030232;28;20079;-57
2022/01/14 10:25:04;;;;;;;29.70;11.45;;;6.30;99.90;;;;;;5030447;28;20041;-60
2022/01/14 10:27:37;;;;;;;27.63;11.27;;;6.40;99.90;;;;;;5027520;28;20477;-57
2022/01/14 10:30:11;;;;;;;25.30;11.88;;;6.40;99.90;;;;;;5026007;28;20501;-56
2022/01/14 10:32:38;;;;;;;27.65;11.88;;;6.40;99.90;;;;;;5031657;28;20057;-56
2022/01/14 10:35:10;;;;;;;29.77;11.52;;;6.40;99.90;;;;;;5009612;28;20056;-58
2022/01/14 10:37:36;;;;;;;27.23;12.10;;;6.50;99.90;;;;;;5027107;28;20424;-54
2022/01/14 10:40:13;;;;;;;31.73;12.38;;;6.50;99.90;;;;;;5027483;28;20080;-53
2022/01/14 10:42:40;;;;;;;28.27;12.35;;;6.50;99.90;;;;;;5031017;28;20037;-56
2022/01/14 10:45:15;;;;;;;31.70;13.07;;;6.50;99.90;;;;;;5028917;28;20041;-56
2022/01/14 10:47:49;;;;;;;24.90;12.00;;;6.60;99.90;;;;;;5025807;28;20048;-56
2022/01/14 10:50:15;;;;;;;23.45;9.40;;;6.60;99.90;;;;;;5028615;28;20132;-58
2022/01/14 10:52:41;;;;;;;22.98;8.98;;;6.60;99.90;;;;;;5012685;28;20124;-58
2022/01/14 10:55:07;;;;;;;27.40;10.43;;;6.60;99.90;;;;;;4997778;28;20219;-58
2022/01/14 10:57:33;;;;;;;33.17;11.10;;;6.60;99.90;;;;;;5033860;28;20123;-57
2022/01/14 11:00:17;;;;;;;23.88;11.00;;;6.70;99.90;;;;;;5032388;28;20049;-57
2022/01/14 11:02:48;;;;;;;25.45;9.80;;;6.70;99.90;;;;;;5032021;28;20084;-56
2022/01/14 11:05:19;;;;;;;27.80;8.95;;;6.70;99.90;;;;;;5032837;28;20048;-58
2022/01/14 11:07:47;;;;;;;22.27;8.68;;;6.70;99.90;;;;;;5033711;28;20706;-59
2022/01/14 11:10:26;;;;;;;20.25;8.02;;;7.10;99.90;;;;;;5033529;28;20042;-57
2022/01/14 11:12:55;;;;;;;25.20;9.30;;;6.80;99.90;;;;;;5033585;28;20045;-57
2022/01/14 11:15:23;;;;;;;27.15;11.15;;;6.70;99.90;;;;;;5033864;28;20067;-55
2022/01/14 11:17:51;;;;;;;39.85;13.95;;;6.80;99.90;;;;;;5016221;28;20041;-55
2022/01/14 11:20:23;;;;;;;36.50;13.65;;;6.80;99.90;;;;;;5026205;28;20053;-57
2022/01/14 11:25:40;;;;;;;36.50;14.07;;;6.80;99.90;;;;;;5025284;28;20041;-55
2022/01/14 11:28:07;;;;;;;29.85;11.95;;;6.80;99.90;;;;;;5026811;28;20076;-58
2022/01/14 11:30:33;;;;;;;34.35;11.75;;;6.90;99.90;;;;;;5026188;28;20045;-58
2022/01/14 11:33:03;;;;;;;29.30;12.30;;;6.90;99.90;;;;;;5023221;28;20091;-56
2022/01/14 11:35:30;;;;;;;31.95;11.35;;;6.90;99.90;;;;;;5023973;28;20088;-57
2022/01/14 11:37:57;;;;;;;26.25;10.88;;;7.10;99.90;;;;;;5025332;28;20076;-58
2022/01/14 11:40:23;;;;;;;30.80;10.93;;;6.90;99.90;;;;;;5024743;28;20041;-58
2022/01/14 11:43:02;;;;;;;30.00;11.90;;;6.90;99.90;;;;;;5022758;28;20032;-57
2022/01/14 11:45:47;;;;;;;29.17;12.30;;;6.90;99.90;;;;;;5022904;28;20129;-59
2022/01/14 11:48:35;;;;;;;31.25;11.07;;;6.90;99.90;;;;;;5006418;28;20037;-56
2022/01/14 11:51:04;;;;;;;22.50;9.00;;;6.90;99.90;;;;;;5024980;28;20049;-55
2022/01/14 11:53:36;;;;;;;26.80;9.50;;;6.90;99.90;;;;;;5024204;28;20079;-57
2022/01/14 11:56:04;;;;;;;20.63;8.18;;;6.90;99.90;;;;;;5023707;28;20091;-57
2022/01/14 11:58:29;;;;;;;13.93;7.35;;;6.90;99.90;;;;;;5024371;28;20095;-58
2022/01/14 12:00:55;;;;;;;19.05;6.72;;;7.10;99.90;;;;;;5026088;28;20053;-57
2022/01/14 12:03:26;;;;;;;22.17;6.50;;;6.90;99.90;;;;;;5028995;28;20103;-58
2022/01/14 12:05:59;;;;;;;18.52;6.55;;;6.90;99.90;;;;;;5030359;28;20380;-57
2022/01/14 12:08:30;;;;;;;13.80;6.40;;;6.90;99.90;;;;;;5031953;28;20033;-55
2022/01/14 12:11:16;;;;;;;15.57;6.18;;;6.90;99.90;;;;;;5032185;28;20052;-55
2022/01/14 12:13:53;;;;;;;19.60;6.45;;;7.00;99.90;;;;;;5033390;28;20472;-57
2022/01/14 12:16:35;;;;;;;20.30;6.50;;;7.00;99.90;;;;;;5026346;28;20184;-55
2022/01/14 12:19:02;;;;;;;13.88;5.82;;;7.00;99.90;;;;;;5024720;28;20477;-56
2022/01/14 12:21:43;;;;;;;15.00;6.10;;;7.00;99.90;;;;;;5025533;28;20032;-55
2022/01/14 12:24:14;;;;;;;11.98;6.03;;;7.00;99.90;;;;;;5026158;28;20041;-57
2022/01/14 12:27:03;;;;;;;16.35;5.63;;;7.00;99.90;;;;;;5026081;28;20025;-56
2022/01/14 12:29:51;;;;;;;15.88;5.72;;;7.00;99.90;;;;;;4967355;28;20088;-57
2022/01/14 12:32:37;;;;;;;14.93;5.18;;;7.00;99.90;;;;;;5025099;28;20326;-59
2022/01/14 12:35:13;;;;;;;15.77;4.60;;;7.00;99.90;;;;;;5019300;28;20052;-58
2022/01/14 12:37:48;;;;;;;15.57;5.10;;;7.00;99.90;;;;;;4989634;28;20037;-56
2022/01/14 12:40:23;;;;;;;15.77;5.00;;;7.00;99.90;;;;;;5024492;28;20135;-58
2022/01/14 12:42:58;;;;;;;21.08;5.40;;;7.00;99.90;;;;;;5024727;28;20025;-59
2022/01/14 12:46:00;;;;;;;17.20;5.75;;;7.00;99.90;;;;;;5023776;28;20707;-57
2022/01/14 12:49:00;;;;;;;19.02;5.68;;;7.00;99.90;;;;;;5024476;28;20045;-57
2022/01/14 12:51:20;;;;;;;16.15;5.32;;;7.00;99.90;;;;;;5021763;28;20136;-59
2022/01/14 12:53:55;;;;;;;19.67;4.78;;;7.10;99.90;;;;;;5018009;28;20111;-59
2022/01/14 12:56:27;;;;;;;13.13;4.30;;;7.00;99.90;;;;;;5004560;28;20061;-59
2022/01/14 12:59:09;;;;;;;18.00;5.40;;;7.00;99.90;;;;;;5003534;28;20034;-54
2022/01/14 13:01:41;;;;;;;20.77;5.18;;;7.00;99.90;;;;;;5003238;28;20482;-56
2022/01/14 13:04:12;;;;;;;17.55;5.38;;;6.90;99.90;;;;;;5003000;28;20054;-56
2022/01/14 13:06:44;;;;;;;17.15;5.22;;;6.90;99.90;;;;;;5003789;28;20038;-57